createdAt,value
2022-10-22T00:01:28.633Z,12.48
2022-10-22T00:04:34.544Z,12.42
2022-10-22T00:07:38.571Z,12.41
2022-10-22T00:10:41.762Z,12.40
2022-10-22T00:16:52.864Z,12.42
2022-10-22T00:19:55.468Z,12.42
2022-10-22T00:22:58.307Z,12.41
2022-10-22T00:26:01.059Z,12.40
2022-10-22T00:29:04.782Z,12.40
2022-10-22T00:32:07.635Z,12.41
2022-10-22T00:35:10.369Z,12.42
2022-10-22T00:38:13.034Z,12.40
2022-10-22T00:41:15.778Z,12.39
2022-10-22T00:45:02.892Z,12.41
2022-10-22T00:48:10.455Z,12.40
2022-10-22T00:51:13.988Z,12.40
2022-10-22T00:54:16.755Z,12.40
2022-10-22T00:57:22.812Z,12.42
2022-10-22T01:00:26.251Z,12.44
2022-10-22T01:03:29.088Z,12.45
2022-10-22T01:06:34.237Z,12.42
2022-10-22T01:09:46.615Z,12.45
2022-10-22T01:13:05.672Z,12.43
2022-10-22T01:16:14.639Z,12.42
2022-10-22T01:19:26.558Z,12.41
2022-10-22T01:22:38.674Z,12.40
2022-10-22T01:26:05.552Z,12.41
2022-10-22T01:29:15.898Z,12.40
2022-10-22T01:32:24.220Z,12.40
2022-10-22T01:35:35.096Z,12.35
2022-10-22T01:38:39.712Z,12.33
2022-10-22T01:41:45.455Z,12.31
2022-10-22T01:44:50.170Z,12.31
2022-10-22T01:48:07.849Z,12.27
2022-10-22T01:51:13.620Z,12.27
2022-10-22T01:54:36.316Z,12.30
2022-10-22T01:57:48.921Z,12.33
2022-10-22T02:01:00.682Z,12.29
2022-10-22T02:04:22.968Z,12.26
2022-10-22T02:07:30.621Z,12.23
2022-10-22T02:10:34.040Z,12.21
2022-10-22T02:13:44.763Z,12.29
2022-10-22T02:16:49.533Z,12.21
2022-10-22T02:20:00.784Z,12.19
2022-10-22T02:23:05.033Z,12.19
2022-10-22T02:26:15.293Z,12.18
2022-10-22T02:29:27.888Z,12.19
2022-10-22T02:32:56.128Z,12.16
2022-10-22T02:36:01.108Z,12.15
2022-10-22T02:39:05.683Z,12.14
2022-10-22T02:42:09.678Z,12.09
2022-10-22T02:45:12.339Z,12.04
2022-10-22T02:48:15.142Z,12.03
2022-10-22T02:51:17.941Z,12.03
2022-10-22T02:54:21.169Z,12.00
2022-10-22T02:57:23.824Z,11.98
2022-10-22T03:00:26.619Z,11.92
2022-10-22T03:03:29.375Z,11.83
2022-10-22T03:06:32.202Z,11.75
2022-10-22T03:09:34.816Z,11.72
2022-10-22T03:12:37.508Z,11.70
2022-10-22T03:15:40.182Z,11.66
2022-10-22T03:18:42.905Z,11.63
2022-10-22T03:21:52.925Z,11.55
2022-10-22T03:25:00.846Z,11.51
2022-10-22T03:28:07.037Z,11.48
2022-10-22T03:31:09.821Z,11.48
2022-10-22T03:34:13.488Z,11.46
2022-10-22T03:37:17.038Z,11.42
2022-10-22T03:40:20.072Z,11.40
2022-10-22T03:43:22.719Z,11.37
2022-10-22T03:46:26.389Z,11.35
2022-10-22T03:49:29.110Z,11.31
2022-10-22T03:52:37.240Z,11.29
2022-10-22T03:55:41.679Z,11.29
2022-10-22T03:58:44.300Z,11.28
2022-10-22T04:01:47.027Z,11.31
2022-10-22T04:04:49.900Z,11.30
2022-10-22T04:07:52.407Z,11.26
2022-10-22T04:10:55.400Z,11.24
2022-10-22T04:13:57.840Z,11.21
2022-10-22T04:17:01.085Z,11.17
2022-10-22T04:20:04.864Z,11.17
2022-10-22T04:23:07.794Z,11.17
2022-10-22T04:26:10.210Z,11.17
2022-10-22T04:29:16.358Z,11.16
2022-10-22T04:32:19.053Z,11.16
2022-10-22T04:35:22.014Z,11.13
2022-10-22T04:38:24.441Z,11.08
2022-10-22T04:41:30.360Z,11.10
2022-10-22T04:44:32.962Z,11.09
2022-10-22T04:47:35.854Z,11.11
2022-10-22T04:50:38.411Z,11.09
2022-10-22T04:53:46.264Z,11.09
2022-10-22T04:56:48.715Z,11.09
2022-10-22T04:59:52.507Z,11.07
2022-10-22T05:02:54.798Z,11.05
2022-10-22T05:06:01.677Z,11.07
2022-10-22T05:09:10.825Z,11.02
2022-10-22T05:12:13.839Z,11.02
2022-10-22T05:15:16.398Z,11.00
2022-10-22T05:18:21.870Z,10.98
2022-10-22T05:21:25.207Z,10.97
2022-10-22T05:24:30.085Z,10.97
2022-10-22T05:27:32.516Z,10.97
2022-10-22T05:30:35.440Z,11.03
2022-10-22T05:33:38.519Z,11.02
2022-10-22T05:36:41.980Z,11.08
2022-10-22T05:39:44.407Z,11.08
2022-10-22T05:42:47.310Z,11.13
2022-10-22T05:45:49.721Z,11.17
2022-10-22T05:48:54.525Z,11.23
2022-10-22T05:51:57.040Z,11.25
2022-10-22T05:54:59.921Z,11.31
2022-10-22T05:58:05.208Z,11.37
2022-10-22T06:01:18.988Z,11.44
2022-10-22T06:04:21.759Z,11.57
2022-10-22T06:07:24.379Z,11.60
2022-10-22T06:10:27.109Z,11.64
2022-10-22T06:13:29.748Z,11.74
2022-10-22T06:16:32.653Z,11.79
2022-10-22T06:19:35.367Z,11.85
2022-10-22T06:22:38.533Z,11.92
2022-10-22T06:25:42.089Z,12.04
2022-10-22T06:28:44.784Z,12.09
2022-10-22T06:31:48.259Z,12.16
2022-10-22T06:34:51.042Z,12.23
2022-10-22T06:37:53.813Z,12.38
2022-10-22T06:40:56.553Z,12.45
2022-10-22T06:44:00.043Z,12.52
2022-10-22T06:47:02.994Z,12.63
2022-10-22T06:50:06.072Z,12.79
2022-10-22T06:53:08.856Z,13.06
2022-10-22T06:56:14.284Z,13.20
2022-10-22T06:59:17.019Z,13.35
2022-10-22T07:02:19.747Z,13.56
2022-10-22T07:05:22.499Z,13.77
2022-10-22T07:08:25.154Z,13.95
2022-10-22T07:11:30.988Z,14.08
2022-10-22T07:14:33.755Z,14.16
2022-10-22T07:17:36.807Z,14.08
2022-10-22T07:20:42.706Z,14.12
2022-10-22T07:23:45.392Z,14.11
2022-10-22T07:26:48.048Z,14.19
2022-10-22T07:29:50.720Z,14.23
2022-10-22T07:32:53.345Z,14.35
2022-10-22T07:36:00.884Z,14.57
2022-10-22T07:39:03.989Z,15.31
2022-10-22T07:42:06.610Z,16.81
2022-10-22T07:45:09.666Z,19.54
2022-10-22T07:48:12.763Z,23.84
2022-10-22T07:51:16.394Z,26.66
2022-10-22T07:54:19.364Z,26.77
2022-10-22T07:57:21.863Z,27.28
2022-10-22T08:00:25.396Z,28.77
2022-10-22T08:03:29.501Z,28.55
2022-10-22T08:06:31.948Z,27.81
2022-10-22T08:09:35.108Z,27.86
2022-10-22T08:12:38.611Z,28.39
2022-10-22T08:18:51.491Z,31.84
2022-10-22T08:21:54.505Z,34.11
2022-10-22T08:24:56.955Z,34.46
2022-10-22T08:27:59.860Z,33.89
2022-10-22T08:31:05.617Z,31.88
2022-10-22T08:34:08.488Z,32.02
2022-10-22T08:37:14.302Z,30.66
2022-10-22T08:40:26.207Z,28.30
2022-10-22T08:44:06.215Z,25.92
2022-10-22T08:47:22.733Z,23.95
2022-10-22T08:50:49.838Z,22.42
2022-10-22T08:54:10.961Z,21.26
2022-10-22T08:57:19.908Z,20.47
2022-10-22T09:00:23.035Z,19.88
2022-10-22T09:03:40.122Z,19.34
2022-10-22T09:06:49.533Z,18.96
2022-10-22T09:09:57.840Z,18.50
2022-10-22T09:13:00.849Z,18.27
2022-10-22T09:16:19.915Z,18.01
2022-10-22T09:19:38.095Z,17.71
2022-10-22T09:22:58.668Z,17.51
2022-10-22T09:26:02.059Z,17.38
2022-10-22T09:29:05.347Z,17.35
2022-10-22T09:32:08.461Z,17.33
2022-10-22T09:35:13.402Z,17.32
2022-10-22T09:38:20.756Z,17.30
2022-10-22T09:41:29.928Z,17.28
2022-10-22T09:44:37.529Z,17.27
2022-10-22T09:48:00.525Z,17.23
2022-10-22T09:51:25.889Z,17.13
2022-10-22T09:54:34.443Z,17.12
2022-10-22T09:57:38.810Z,17.14
2022-10-22T10:00:47.912Z,17.20
2022-10-22T10:03:50.878Z,17.39
2022-10-22T10:06:56.519Z,17.36
2022-10-22T10:09:59.752Z,17.33
2022-10-22T10:13:17.079Z,17.42
2022-10-22T10:16:29.324Z,17.39
2022-10-22T10:19:59.957Z,17.33
2022-10-22T10:23:24.496Z,17.30
2022-10-22T10:26:34.568Z,17.42
2022-10-22T10:29:54.633Z,17.51
2022-10-22T10:33:11.103Z,17.53
2022-10-22T10:36:43.272Z,17.25
2022-10-22T10:40:14.923Z,17.15
2022-10-22T10:43:37.268Z,17.15
2022-10-22T10:46:48.528Z,17.25
2022-10-22T10:49:55.768Z,17.34
2022-10-22T10:53:27.499Z,17.47
2022-10-22T10:56:41.256Z,17.59
2022-10-22T10:59:54.933Z,17.62
2022-10-22T11:03:16.613Z,17.63
2022-10-22T11:06:25.551Z,17.70
2022-10-22T11:09:34.485Z,17.66
2022-10-22T11:12:45.131Z,17.48
2022-10-22T11:15:57.971Z,17.52
2022-10-22T11:19:07.036Z,17.53
2022-10-22T11:22:27.045Z,17.45
2022-10-22T11:25:34.889Z,17.38
2022-10-22T11:28:43.897Z,17.37
2022-10-22T11:31:47.430Z,17.36
2022-10-22T11:34:54.687Z,17.33
2022-10-22T11:37:58.102Z,17.36
2022-10-22T11:41:05.511Z,17.44
2022-10-22T11:44:07.846Z,17.53
2022-10-22T11:47:25.394Z,17.66
2022-10-22T11:50:48.231Z,17.76
2022-10-22T11:53:57.139Z,17.91
2022-10-22T11:57:15.533Z,18.09
2022-10-22T12:00:48.246Z,18.22
2022-10-22T12:03:58.287Z,18.38
2022-10-22T12:07:02.009Z,18.44
2022-10-22T12:10:29.420Z,18.51
2022-10-22T12:13:52.601Z,18.69
2022-10-22T12:17:14.921Z,18.80
2022-10-22T12:20:17.660Z,18.79
2022-10-22T12:23:31.500Z,18.66
2022-10-22T12:26:34.966Z,18.66
2022-10-22T12:29:37.938Z,18.47
2022-10-22T12:32:41.422Z,18.32
2022-10-22T12:35:46.523Z,18.13
2022-10-22T12:38:49.267Z,18.07
2022-10-22T12:41:54.376Z,17.91
2022-10-22T12:44:57.180Z,17.77
2022-10-22T12:48:16.146Z,17.66
2022-10-22T12:51:20.578Z,17.57
2022-10-22T12:54:30.630Z,17.47
2022-10-22T12:57:33.311Z,17.41
2022-10-22T13:00:36.336Z,17.33
2022-10-22T13:03:47.066Z,17.27
2022-10-22T13:06:54.513Z,17.18
2022-10-22T13:09:59.853Z,17.16
2022-10-22T13:13:04.067Z,17.10
2022-10-22T13:19:54.009Z,17.01
2022-10-22T13:23:00.550Z,16.93
2022-10-22T13:26:18.092Z,16.88
2022-10-22T13:29:23.367Z,16.78
2022-10-22T13:32:34.242Z,16.75
2022-10-22T13:35:38.258Z,16.75
2022-10-22T13:38:41.774Z,16.76
2022-10-22T13:41:45.036Z,16.78
2022-10-22T13:44:47.901Z,16.81
2022-10-22T13:47:54.809Z,16.85
2022-10-22T13:50:57.599Z,16.85
2022-10-22T13:54:00.998Z,16.88
2022-10-22T13:57:09.000Z,16.80
2022-10-22T14:00:18.166Z,16.77
2022-10-22T14:03:23.925Z,16.72
2022-10-22T14:06:28.869Z,16.66
2022-10-22T14:09:31.664Z,16.64
2022-10-22T14:12:34.291Z,16.64
2022-10-22T14:15:38.540Z,16.60
2022-10-22T14:18:41.276Z,16.57
2022-10-22T14:21:44.021Z,16.62
2022-10-22T14:24:46.868Z,16.58
2022-10-22T14:27:50.266Z,16.56
2022-10-22T14:30:53.891Z,16.52
2022-10-22T14:33:56.632Z,16.47
2022-10-22T14:36:59.238Z,16.44
2022-10-22T14:40:02.805Z,16.38
2022-10-22T14:43:05.815Z,16.36
2022-10-22T14:46:11.012Z,16.34
2022-10-22T14:49:13.859Z,16.31
2022-10-22T14:52:16.811Z,16.30
2022-10-22T14:55:19.964Z,16.23
2022-10-22T14:58:22.640Z,16.20
2022-10-22T15:01:25.233Z,16.13
2022-10-22T15:04:28.222Z,16.08
2022-10-22T15:07:30.994Z,16.01
2022-10-22T15:10:33.717Z,16.01
2022-10-22T15:13:36.369Z,16.01
2022-10-22T15:16:39.251Z,15.96
2022-10-22T15:19:43.573Z,15.96
2022-10-22T15:22:46.319Z,15.89
2022-10-22T15:25:49.061Z,15.86
2022-10-22T15:28:51.880Z,15.83
2022-10-22T15:31:57.880Z,15.78
2022-10-22T15:35:01.567Z,15.76
2022-10-22T15:38:06.616Z,15.67
2022-10-22T15:41:12.420Z,15.64
2022-10-22T15:44:20.738Z,15.61
2022-10-22T15:47:25.296Z,15.56
2022-10-22T15:50:28.028Z,15.49
2022-10-22T15:53:30.730Z,15.39
2022-10-22T15:56:33.597Z,15.38
2022-10-22T15:59:36.576Z,15.35
2022-10-22T16:02:39.496Z,15.33
2022-10-22T16:05:50.420Z,15.23
2022-10-22T16:08:54.654Z,15.18
2022-10-22T16:11:57.555Z,15.15
2022-10-22T16:15:01.730Z,15.08
2022-10-22T16:18:04.684Z,15.08
2022-10-22T16:21:12.929Z,15.04
2022-10-22T16:24:15.800Z,14.98
2022-10-22T16:27:18.473Z,14.96
2022-10-22T16:30:21.443Z,14.90
2022-10-22T16:33:24.233Z,14.82
2022-10-22T16:36:27.055Z,14.73
2022-10-22T16:39:29.774Z,14.69
2022-10-22T16:42:32.743Z,14.63
2022-10-22T16:45:35.674Z,14.57
2022-10-22T16:48:42.070Z,14.60
2022-10-22T16:51:45.283Z,14.48
2022-10-22T16:54:48.080Z,14.43
2022-10-22T16:57:53.900Z,14.35
2022-10-22T17:00:56.930Z,14.35
2022-10-22T17:04:00.708Z,14.32
2022-10-22T17:07:03.582Z,14.29
2022-10-22T17:10:09.108Z,14.29
2022-10-22T17:13:15.361Z,14.29
2022-10-22T17:16:20.383Z,14.22
2022-10-22T17:19:24.016Z,14.22
2022-10-22T17:22:27.225Z,14.19
2022-10-22T17:25:42.069Z,14.16
2022-10-22T17:28:45.201Z,14.11
2022-10-22T17:31:48.687Z,14.10
2022-10-22T17:34:51.487Z,14.05
2022-10-22T17:37:54.420Z,14.00
2022-10-22T17:40:59.150Z,13.98
2022-10-22T17:44:05.638Z,14.03
2022-10-22T17:47:09.150Z,13.92
2022-10-22T17:50:12.060Z,13.86
2022-10-22T17:53:15.088Z,13.80
2022-10-22T17:56:21.705Z,13.82
2022-10-22T17:59:24.927Z,13.83
2022-10-22T18:02:30.402Z,13.77
2022-10-22T18:05:33.812Z,13.76
2022-10-22T18:08:36.965Z,13.73
2022-10-22T18:11:41.000Z,13.72
2022-10-22T18:14:44.104Z,13.70
2022-10-22T18:17:50.206Z,13.71
2022-10-22T18:20:53.614Z,13.76
2022-10-22T18:23:59.898Z,13.72
2022-10-22T18:27:04.039Z,13.63
2022-10-22T18:30:07.665Z,13.56
2022-10-22T18:33:12.525Z,13.61
2022-10-22T18:36:19.214Z,13.52
2022-10-22T18:39:21.801Z,13.55
2022-10-22T18:42:26.456Z,13.60
2022-10-22T18:45:32.824Z,13.56
2022-10-22T18:48:36.936Z,13.41
2022-10-22T18:51:39.905Z,13.39
2022-10-22T18:54:43.248Z,13.44
2022-10-22T18:57:45.951Z,13.42
2022-10-22T19:00:50.581Z,13.45
2022-10-22T19:03:53.284Z,13.63
2022-10-22T19:06:58.809Z,13.57
2022-10-22T19:10:01.371Z,13.55
2022-10-22T19:13:04.416Z,13.71
2022-10-22T19:16:09.486Z,13.58
2022-10-22T19:19:16.358Z,13.55
2022-10-22T19:22:18.938Z,13.59
2022-10-22T19:25:22.143Z,13.49
2022-10-22T19:28:24.577Z,13.42
2022-10-22T19:31:29.968Z,13.42
2022-10-22T19:34:32.599Z,13.37
2022-10-22T19:37:37.097Z,13.29
2022-10-22T19:40:42.293Z,13.25
2022-10-22T19:43:48.521Z,13.21
2022-10-22T19:46:51.017Z,13.10
2022-10-22T19:49:54.223Z,13.03
2022-10-22T19:52:56.711Z,12.98
2022-10-22T19:56:00.537Z,12.93
2022-10-22T19:59:04.331Z,12.88
2022-10-22T20:02:11.993Z,12.83
2022-10-22T20:05:14.784Z,12.79
2022-10-22T20:08:17.549Z,12.76
2022-10-22T20:11:23.494Z,12.72
2022-10-22T20:14:26.482Z,12.66
2022-10-22T20:17:29.283Z,12.63
2022-10-22T20:20:31.977Z,12.62
2022-10-22T20:23:35.374Z,12.55
2022-10-22T20:26:38.647Z,12.49
2022-10-22T20:29:42.757Z,12.55
2022-10-22T20:32:45.606Z,12.39
2022-10-22T20:36:01.753Z,12.41
2022-10-22T20:39:08.215Z,12.37
2022-10-22T20:42:11.103Z,12.36
2022-10-22T20:45:13.789Z,12.33
2022-10-22T20:48:16.593Z,12.39
2022-10-22T20:51:19.465Z,12.39
2022-10-22T20:54:22.591Z,12.41
2022-10-22T20:57:25.504Z,12.41
2022-10-22T21:00:28.381Z,12.39
2022-10-22T21:06:41.424Z,12.42
2022-10-22T21:09:44.240Z,12.39
2022-10-22T21:12:47.130Z,12.30
2022-10-22T21:15:49.878Z,12.29
2022-10-22T21:18:52.620Z,12.24
2022-10-22T21:21:55.558Z,12.24
2022-10-22T21:24:58.600Z,12.22
2022-10-22T21:28:01.592Z,12.19
2022-10-22T21:31:06.835Z,12.08
2022-10-22T21:34:09.836Z,12.02
2022-10-22T21:37:12.719Z,11.99
2022-10-22T21:40:15.560Z,11.92
2022-10-22T21:43:18.763Z,11.92
2022-10-22T21:46:27.017Z,11.92
2022-10-22T21:49:29.762Z,11.89
2022-10-22T21:52:32.425Z,11.86
2022-10-22T21:55:39.649Z,11.91
2022-10-22T21:58:42.494Z,11.95
2022-10-22T22:01:45.339Z,11.95
2022-10-22T22:04:50.486Z,11.92
2022-10-22T22:07:52.971Z,11.98
2022-10-22T22:11:23.535Z,12.01
2022-10-22T22:14:26.155Z,12.05
2022-10-22T22:17:29.064Z,12.02
2022-10-22T22:20:31.560Z,12.02
2022-10-22T22:23:37.719Z,12.08
2022-10-22T22:26:40.989Z,12.02
2022-10-22T22:29:44.169Z,11.99
2022-10-22T22:32:46.732Z,11.98
2022-10-22T22:35:49.971Z,11.96
2022-10-22T22:38:56.815Z,11.93
2022-10-22T22:41:59.970Z,11.96
2022-10-22T22:45:02.634Z,11.93
2022-10-22T22:48:06.012Z,11.98
2022-10-22T22:51:08.648Z,11.99
2022-10-22T22:54:11.843Z,12.07
2022-10-22T22:57:15.216Z,12.05
2022-10-22T23:00:18.344Z,12.07
2022-10-22T23:03:21.530Z,12.23
2022-10-22T23:06:27.056Z,12.27
2022-10-22T23:09:29.463Z,12.28
2022-10-22T23:12:32.487Z,12.26
2022-10-22T23:15:38.831Z,12.28
2022-10-22T23:18:42.513Z,12.28
2022-10-22T23:21:48.247Z,12.25
2022-10-22T23:24:51.143Z,12.26
2022-10-22T23:27:53.596Z,12.37
2022-10-22T23:30:56.557Z,12.26
2022-10-22T23:33:59.617Z,12.23
2022-10-22T23:37:02.718Z,12.28
2022-10-22T23:40:05.868Z,12.28
2022-10-22T23:43:08.878Z,12.23
2022-10-22T23:46:12.958Z,12.24
2022-10-22T23:49:16.856Z,12.24
2022-10-22T23:52:19.669Z,12.25
2022-10-22T23:55:22.682Z,12.23
2022-10-22T23:58:25.183Z,12.25
